sensor_id;sensor_type;location;lat;lon;timestamp;P1;durP1;ratioP1;P2;durP2;ratioP2
15177;SDS011;7689;53.612;-2.416;2022-07-01T00:02:05;4.32;;;3.97;;
15177;SDS011;7689;53.612;-2.416;2022-07-01T00:04:31;5.28;;;3.97;;
15177;SDS011;7689;53.612;-2.416;2022-07-01T00:06:56;4.07;;;3.72;;
15177;SDS011;7689;53.612;-2.416;2022-07-01T00:09:22;5.80;;;3.85;;
15177;SDS011;7689;53.612;-2.416;2022-07-01T00:11:48;6.10;;;4.53;;
15177;SDS011;7689;53.612;-2.416;2022-07-01T00:14:15;4.30;;;3.90;;
15177;SDS011;7689;53.612;-2.416;2022-07-01T00:16:40;3.88;;;3.50;;
15177;SDS011;7689;53.612;-2.416;2022-07-01T00:19:06;4.78;;;4.00;;
15177;SDS011;7689;53.612;-2.416;2022-07-01T00:21:32;3.95;;;3.65;;
15177;SDS011;7689;53.612;-2.416;2022-07-01T00:23:58;8.93;;;3.70;;
15177;SDS011;7689;53.612;-2.416;2022-07-01T00:26:24;3.45;;;3.25;;
15177;SDS011;7689;53.612;-2.416;2022-07-01T00:28:50;4.10;;;3.80;;
15177;SDS011;7689;53.612;-2.416;2022-07-01T00:31:16;4.00;;;3.70;;
15177;SDS011;7689;53.612;-2.416;2022-07-01T00:33:41;5.57;;;4.00;;
15177;SDS011;7689;53.612;-2.416;2022-07-01T00:36:07;4.47;;;4.07;;
15177;SDS011;7689;53.612;-2.416;2022-07-01T00:38:33;4.35;;;3.90;;
15177;SDS011;7689;53.612;-2.416;2022-07-01T00:40:58;6.28;;;4.10;;
15177;SDS011;7689;53.612;-2.416;2022-07-01T00:43:24;4.50;;;4.10;;
15177;SDS011;7689;53.612;-2.416;2022-07-01T00:45:53;4.50;;;4.07;;
15177;SDS011;7689;53.612;-2.416;2022-07-01T00:48:20;5.05;;;4.22;;
15177;SDS011;7689;53.612;-2.416;2022-07-01T00:50:46;4.80;;;3.67;;
15177;SDS011;7689;53.612;-2.416;2022-07-01T00:53:13;4.20;;;3.80;;
15177;SDS011;7689;53.612;-2.416;2022-07-01T00:55:40;3.70;;;3.40;;
15177;SDS011;7689;53.612;-2.416;2022-07-01T00:58:07;4.72;;;4.28;;
15177;SDS011;7689;53.612;-2.416;2022-07-01T01:00:33;5.20;;;4.18;;
15177;SDS011;7689;53.612;-2.416;2022-07-01T01:02:59;4.65;;;4.20;;
15177;SDS011;7689;53.612;-2.416;2022-07-01T01:05:25;4.63;;;4.18;;
15177;SDS011;7689;53.612;-2.416;2022-07-01T01:07:51;3.83;;;3.53;;
15177;SDS011;7689;53.612;-2.416;2022-07-01T01:10:17;4.68;;;4.30;;
15177;SDS011;7689;53.612;-2.416;2022-07-01T01:12:44;4.65;;;3.60;;
15177;SDS011;7689;53.612;-2.416;2022-07-01T01:15:10;7.00;;;4.53;;
15177;SDS011;7689;53.612;-2.416;2022-07-01T01:17:42;4.32;;;4.00;;
15177;SDS011;7689;53.612;-2.416;2022-07-01T01:20:08;5.05;;;4.30;;
15177;SDS011;7689;53.612;-2.416;2022-07-01T01:22:34;4.88;;;3.95;;
15177;SDS011;7689;53.612;-2.416;2022-07-01T01:24:59;4.22;;;3.70;;
15177;SDS011;7689;53.612;-2.416;2022-07-01T01:27:25;5.38;;;4.22;;
15177;SDS011;7689;53.612;-2.416;2022-07-01T01:29:51;5.13;;;3.47;;
15177;SDS011;7689;53.612;-2.416;2022-07-01T01:32:16;4.35;;;3.45;;
15177;SDS011;7689;53.612;-2.416;2022-07-01T01:34:42;4.97;;;4.40;;
15177;SDS011;7689;53.612;-2.416;2022-07-01T01:37:08;6.10;;;4.20;;
15177;SDS011;7689;53.612;-2.416;2022-07-01T01:39:34;4.70;;;4.28;;
15177;SDS011;7689;53.612;-2.416;2022-07-01T01:42:03;5.00;;;4.50;;
15177;SDS011;7689;53.612;-2.416;2022-07-01T01:44:30;5.47;;;4.47;;
15177;SDS011;7689;53.612;-2.416;2022-07-01T01:46:56;4.32;;;3.90;;
15177;SDS011;7689;53.612;-2.416;2022-07-01T01:49:21;5.07;;;3.88;;
15177;SDS011;7689;53.612;-2.416;2022-07-01T01:51:47;5.07;;;3.65;;
15177;SDS011;7689;53.612;-2.416;2022-07-01T01:54:13;5.03;;;3.75;;
15177;SDS011;7689;53.612;-2.416;2022-07-01T01:56:39;4.22;;;3.90;;
15177;SDS011;7689;53.612;-2.416;2022-07-01T01:59:05;6.47;;;4.15;;
15177;SDS011;7689;53.612;-2.416;2022-07-01T02:01:31;6.15;;;4.30;;
15177;SDS011;7689;53.612;-2.416;2022-07-01T02:03:57;4.43;;;4.03;;
15177;SDS011;7689;53.612;-2.416;2022-07-01T02:06:23;4.75;;;4.28;;
15177;SDS011;7689;53.612;-2.416;2022-07-01T02:08:50;4.35;;;3.90;;
15177;SDS011;7689;53.612;-2.416;2022-07-01T02:11:15;4.38;;;3.88;;
15177;SDS011;7689;53.612;-2.416;2022-07-01T02:13:41;7.05;;;4.30;;
15177;SDS011;7689;53.612;-2.416;2022-07-01T02:16:09;5.25;;;4.38;;
15177;SDS011;7689;53.612;-2.416;2022-07-01T02:18:35;6.53;;;4.13;;
15177;SDS011;7689;53.612;-2.416;2022-07-01T02:21:00;4.18;;;3.88;;
15177;SDS011;7689;53.612;-2.416;2022-07-01T02:23:26;4.43;;;4.00;;
15177;SDS011;7689;53.612;-2.416;2022-07-01T02:25:52;4.93;;;4.40;;
15177;SDS011;7689;53.612;-2.416;2022-07-01T02:28:18;7.80;;;4.80;;
15177;SDS011;7689;53.612;-2.416;2022-07-01T02:30:44;5.43;;;4.88;;
15177;SDS011;7689;53.612;-2.416;2022-07-01T02:33:09;5.97;;;5.40;;
15177;SDS011;7689;53.612;-2.416;2022-07-01T02:35:36;6.82;;;5.80;;
15177;SDS011;7689;53.612;-2.416;2022-07-01T02:38:03;5.35;;;5.00;;
15177;SDS011;7689;53.612;-2.416;2022-07-01T02:40:29;6.15;;;4.55;;
15177;SDS011;7689;53.612;-2.416;2022-07-01T02:42:55;4.80;;;4.40;;
15177;SDS011;7689;53.612;-2.416;2022-07-01T02:45:21;6.75;;;5.60;;
15177;SDS011;7689;53.612;-2.416;2022-07-01T02:47:47;7.90;;;5.75;;
15177;SDS011;7689;53.612;-2.416;2022-07-01T02:50:13;7.25;;;6.40;;
15177;SDS011;7689;53.612;-2.416;2022-07-01T02:52:40;7.95;;;5.47;;
15177;SDS011;7689;53.612;-2.416;2022-07-01T02:55:07;6.72;;;5.40;;
15177;SDS011;7689;53.612;-2.416;2022-07-01T02:57:34;6.28;;;5.68;;
15177;SDS011;7689;53.612;-2.416;2022-07-01T03:00:00;4.80;;;4.50;;
15177;SDS011;7689;53.612;-2.416;2022-07-01T03:02:30;7.30;;;4.88;;
15177;SDS011;7689;53.612;-2.416;2022-07-01T03:04:57;5.65;;;5.15;;
15177;SDS011;7689;53.612;-2.416;2022-07-01T03:07:23;4.53;;;4.13;;
15177;SDS011;7689;53.612;-2.416;2022-07-01T03:09:48;8.40;;;3.97;;
15177;SDS011;7689;53.612;-2.416;2022-07-01T03:12:14;4.82;;;4.43;;
15177;SDS011;7689;53.612;-2.416;2022-07-01T03:15:03;5.20;;;4.10;;
15177;SDS011;7689;53.612;-2.416;2022-07-01T03:17:31;6.30;;;4.20;;
15177;SDS011;7689;53.612;-2.416;2022-07-01T03:19:59;4.07;;;3.67;;
15177;SDS011;7689;53.612;-2.416;2022-07-01T03:22:26;4.80;;;3.75;;
15177;SDS011;7689;53.612;-2.416;2022-07-01T03:24:53;3.75;;;3.47;;
15177;SDS011;7689;53.612;-2.416;2022-07-01T03:27:19;4.07;;;3.78;;
15177;SDS011;7689;53.612;-2.416;2022-07-01T03:29:45;4.07;;;3.45;;
15177;SDS011;7689;53.612;-2.416;2022-07-01T03:32:11;6.70;;;3.80;;
15177;SDS011;7689;53.612;-2.416;2022-07-01T03:34:41;3.13;;;2.92;;
15177;SDS011;7689;53.612;-2.416;2022-07-01T03:37:09;4.07;;;3.67;;
15177;SDS011;7689;53.612;-2.416;2022-07-01T03:39:36;3.88;;;3.35;;
15177;SDS011;7689;53.612;-2.416;2022-07-01T03:42:02;3.97;;;3.67;;
15177;SDS011;7689;53.612;-2.416;2022-07-01T03:44:29;4.65;;;4.35;;
15177;SDS011;7689;53.612;-2.416;2022-07-01T03:46:55;5.63;;;3.78;;
15177;SDS011;7689;53.612;-2.416;2022-07-01T03:49:21;4.13;;;3.83;;
15177;SDS011;7689;53.612;-2.416;2022-07-01T03:51:47;4.60;;;3.47;;
15177;SDS011;7689;53.612;-2.416;2022-07-01T03:54:14;4.30;;;3.42;;
15177;SDS011;7689;53.612;-2.416;2022-07-01T03:57:01;6.32;;;3.60;;
15177;SDS011;7689;53.612;-2.416;2022-07-01T03:59:29;4.35;;;3.28;;
15177;SDS011;7689;53.612;-2.416;2022-07-01T04:01:56;3.33;;;3.03;;
15177;SDS011;7689;53.612;-2.416;2022-07-01T04:04:23;3.45;;;3.15;;
15177;SDS011;7689;53.612;-2.416;2022-07-01T04:06:50;3.60;;;3.30;;
15177;SDS011;7689;53.612;-2.416;2022-07-01T04:09:17;4.43;;;3.35;;
15177;SDS011;7689;53.612;-2.416;2022-07-01T04:11:44;6.43;;;3.47;;
15177;SDS011;7689;53.612;-2.416;2022-07-01T04:14:11;4.40;;;2.90;;
15177;SDS011;7689;53.612;-2.416;2022-07-01T04:16:37;4.20;;;3.20;;
15177;SDS011;7689;53.612;-2.416;2022-07-01T04:19:04;3.38;;;3.08;;
15177;SDS011;7689;53.612;-2.416;2022-07-01T04:21:30;3.85;;;3.55;;
15177;SDS011;7689;53.612;-2.416;2022-07-01T04:24:14;3.70;;;3.40;;
15177;SDS011;7689;53.612;-2.416;2022-07-01T04:26:41;4.55;;;3.40;;
15177;SDS011;7689;53.612;-2.416;2022-07-01T04:29:07;3.85;;;3.53;;
15177;SDS011;7689;53.612;-2.416;2022-07-01T04:31:36;4.38;;;3.97;;
15177;SDS011;7689;53.612;-2.416;2022-07-01T04:34:03;5.07;;;3.80;;
15177;SDS011;7689;53.612;-2.416;2022-07-01T04:36:30;6.75;;;4.00;;
15177;SDS011;7689;53.612;-2.416;2022-07-01T04:38:56;5.07;;;4.63;;
15177;SDS011;7689;53.612;-2.416;2022-07-01T04:41:22;5.55;;;4.72;;
15177;SDS011;7689;53.612;-2.416;2022-07-01T04:44:07;4.72;;;4.32;;
15177;SDS011;7689;53.612;-2.416;2022-07-01T04:46:33;5.93;;;4.90;;
15177;SDS011;7689;53.612;-2.416;2022-07-01T04:48:58;5.25;;;4.75;;
15177;SDS011;7689;53.612;-2.416;2022-07-01T04:51:24;5.22;;;4.60;;
15177;SDS011;7689;53.612;-2.416;2022-07-01T04:53:50;5.40;;;4.82;;
15177;SDS011;7689;53.612;-2.416;2022-07-01T04:56:16;4.75;;;4.38;;
15177;SDS011;7689;53.612;-2.416;2022-07-01T04:58:42;5.68;;;5.00;;
15177;SDS011;7689;53.612;-2.416;2022-07-01T05:01:07;4.80;;;4.13;;
15177;SDS011;7689;53.612;-2.416;2022-07-01T05:03:33;5.25;;;4.32;;
15177;SDS011;7689;53.612;-2.416;2022-07-01T05:05:59;4.78;;;4.35;;
15177;SDS011;7689;53.612;-2.416;2022-07-01T05:08:25;4.90;;;4.40;;
15177;SDS011;7689;53.612;-2.416;2022-07-01T05:10:51;6.30;;;4.85;;
15177;SDS011;7689;53.612;-2.416;2022-07-01T05:13:16;6.85;;;5.38;;
15177;SDS011;7689;53.612;-2.416;2022-07-01T05:15:42;5.75;;;4.40;;
15177;SDS011;7689;53.612;-2.416;2022-07-01T05:18:08;5.65;;;4.15;;
15177;SDS011;7689;53.612;-2.416;2022-07-01T05:20:52;5.10;;;4.53;;
15177;SDS011;7689;53.612;-2.416;2022-07-01T05:23:36;6.63;;;4.72;;
15177;SDS011;7689;53.612;-2.416;2022-07-01T05:26:02;6.60;;;5.55;;
15177;SDS011;7689;53.612;-2.416;2022-07-01T05:28:28;5.30;;;4.78;;
15177;SDS011;7689;53.612;-2.416;2022-07-01T05:30:54;6.18;;;5.68;;
15177;SDS011;7689;53.612;-2.416;2022-07-01T05:33:20;7.22;;;5.75;;
15177;SDS011;7689;53.612;-2.416;2022-07-01T05:35:46;6.68;;;6.03;;
15177;SDS011;7689;53.612;-2.416;2022-07-01T05:38:12;6.53;;;5.53;;
15177;SDS011;7689;53.612;-2.416;2022-07-01T05:40:38;5.38;;;4.90;;
15177;SDS011;7689;53.612;-2.416;2022-07-01T05:43:04;6.93;;;6.30;;
15177;SDS011;7689;53.612;-2.416;2022-07-01T05:45:30;11.00;;;6.75;;
15177;SDS011;7689;53.612;-2.416;2022-07-01T05:47:55;6.40;;;5.80;;
15177;SDS011;7689;53.612;-2.416;2022-07-01T05:50:22;7.13;;;5.80;;
15177;SDS011;7689;53.612;-2.416;2022-07-01T05:52:48;7.55;;;5.80;;
15177;SDS011;7689;53.612;-2.416;2022-07-01T05:55:14;6.00;;;5.50;;
15177;SDS011;7689;53.612;-2.416;2022-07-01T05:57:40;6.43;;;5.80;;
15177;SDS011;7689;53.612;-2.416;2022-07-01T06:00:06;10.40;;;5.50;;
15177;SDS011;7689;53.612;-2.416;2022-07-01T06:02:32;10.43;;;6.00;;
15177;SDS011;7689;53.612;-2.416;2022-07-01T06:04:57;8.77;;;6.03;;
15177;SDS011;7689;53.612;-2.416;2022-07-01T06:07:24;5.75;;;5.15;;
15177;SDS011;7689;53.612;-2.416;2022-07-01T06:09:50;5.78;;;5.28;;
15177;SDS011;7689;53.612;-2.416;2022-07-01T06:12:16;7.50;;;5.25;;
15177;SDS011;7689;53.612;-2.416;2022-07-01T06:14:42;5.55;;;4.75;;
15177;SDS011;7689;53.612;-2.416;2022-07-01T06:17:08;6.55;;;5.10;;
15177;SDS011;7689;53.612;-2.416;2022-07-01T06:19:34;5.15;;;4.65;;
15177;SDS011;7689;53.612;-2.416;2022-07-01T06:22:00;5.50;;;4.65;;
15177;SDS011;7689;53.612;-2.416;2022-07-01T06:24:26;5.43;;;4.90;;
15177;SDS011;7689;53.612;-2.416;2022-07-01T06:26:51;4.93;;;4.53;;
15177;SDS011;7689;53.612;-2.416;2022-07-01T06:29:17;5.50;;;4.50;;
15177;SDS011;7689;53.612;-2.416;2022-07-01T06:31:43;4.53;;;4.22;;
15177;SDS011;7689;53.612;-2.416;2022-07-01T06:34:08;5.22;;;4.80;;
15177;SDS011;7689;53.612;-2.416;2022-07-01T06:36:34;6.55;;;5.18;;
15177;SDS011;7689;53.612;-2.416;2022-07-01T06:39:00;6.40;;;5.88;;
15177;SDS011;7689;53.612;-2.416;2022-07-01T06:41:26;5.57;;;5.07;;
15177;SDS011;7689;53.612;-2.416;2022-07-01T06:43:52;5.80;;;5.30;;
15177;SDS011;7689;53.612;-2.416;2022-07-01T06:46:21;5.05;;;4.55;;
15177;SDS011;7689;53.612;-2.416;2022-07-01T06:48:47;6.10;;;5.50;;
15177;SDS011;7689;53.612;-2.416;2022-07-01T06:51:13;6.30;;;5.72;;
15177;SDS011;7689;53.612;-2.416;2022-07-01T06:53:39;4.78;;;4.38;;
15177;SDS011;7689;53.612;-2.416;2022-07-01T06:56:05;5.68;;;4.90;;
15177;SDS011;7689;53.612;-2.416;2022-07-01T06:58:31;6.30;;;5.68;;
15177;SDS011;7689;53.612;-2.416;2022-07-01T07:00:57;5.82;;;5.28;;
15177;SDS011;7689;53.612;-2.416;2022-07-01T07:03:23;6.03;;;5.45;;
15177;SDS011;7689;53.612;-2.416;2022-07-01T07:05:49;6.32;;;5.75;;
15177;SDS011;7689;53.612;-2.416;2022-07-01T07:08:15;6.40;;;5.80;;
15177;SDS011;7689;53.612;-2.416;2022-07-01T07:10:41;4.22;;;3.92;;
15177;SDS011;7689;53.612;-2.416;2022-07-01T07:13:06;4.93;;;4.28;;
15177;SDS011;7689;53.612;-2.416;2022-07-01T07:15:32;5.60;;;4.13;;
15177;SDS011;7689;53.612;-2.416;2022-07-01T07:17:58;4.53;;;3.85;;
15177;SDS011;7689;53.612;-2.416;2022-07-01T07:20:24;3.55;;;3.35;;
15177;SDS011;7689;53.612;-2.416;2022-07-01T07:22:50;3.60;;;3.30;;
15177;SDS011;7689;53.612;-2.416;2022-07-01T07:25:15;5.05;;;4.13;;
15177;SDS011;7689;53.612;-2.416;2022-07-01T07:27:41;6.50;;;4.20;;
15177;SDS011;7689;53.612;-2.416;2022-07-01T07:30:11;3.80;;;3.50;;
15177;SDS011;7689;53.612;-2.416;2022-07-01T07:32:37;4.25;;;3.85;;
15177;SDS011;7689;53.612;-2.416;2022-07-01T07:35:03;3.75;;;3.45;;
15177;SDS011;7689;53.612;-2.416;2022-07-01T07:37:29;4.55;;;3.78;;
15177;SDS011;7689;53.612;-2.416;2022-07-01T07:39:57;4.18;;;3.78;;
15177;SDS011;7689;53.612;-2.416;2022-07-01T07:42:29;5.05;;;4.13;;
15177;SDS011;7689;53.612;-2.416;2022-07-01T07:44:55;5.13;;;3.70;;
15177;SDS011;7689;53.612;-2.416;2022-07-01T07:47:20;3.70;;;3.40;;
15177;SDS011;7689;53.612;-2.416;2022-07-01T07:49:46;3.85;;;3.55;;
15177;SDS011;7689;53.612;-2.416;2022-07-01T07:52:12;4.97;;;4.13;;
15177;SDS011;7689;53.612;-2.416;2022-07-01T07:54:38;4.38;;;3.53;;
15177;SDS011;7689;53.612;-2.416;2022-07-01T07:57:04;6.63;;;4.00;;
15177;SDS011;7689;53.612;-2.416;2022-07-01T07:59:30;4.28;;;3.90;;
15177;SDS011;7689;53.612;-2.416;2022-07-01T08:01:56;3.60;;;3.28;;
15177;SDS011;7689;53.612;-2.416;2022-07-01T08:04:22;4.13;;;3.50;;
15177;SDS011;7689;53.612;-2.416;2022-07-01T08:06:47;6.65;;;3.83;;
15177;SDS011;7689;53.612;-2.416;2022-07-01T08:09:13;3.63;;;3.33;;
15177;SDS011;7689;53.612;-2.416;2022-07-01T08:11:39;7.32;;;3.63;;
15177;SDS011;7689;53.612;-2.416;2022-07-01T08:14:04;4.65;;;3.47;;
15177;SDS011;7689;53.612;-2.416;2022-07-01T08:16:30;4.55;;;3.10;;
15177;SDS011;7689;53.612;-2.416;2022-07-01T08:18:56;3.70;;;3.40;;
15177;SDS011;7689;53.612;-2.416;2022-07-01T08:21:22;3.10;;;2.90;;
15177;SDS011;7689;53.612;-2.416;2022-07-01T08:23:48;2.92;;;2.72;;
15177;SDS011;7689;53.612;-2.416;2022-07-01T08:26:14;3.17;;;2.83;;
15177;SDS011;7689;53.612;-2.416;2022-07-01T08:28:41;4.78;;;3.83;;
15177;SDS011;7689;53.612;-2.416;2022-07-01T08:31:07;3.55;;;3.25;;
15177;SDS011;7689;53.612;-2.416;2022-07-01T08:33:33;3.30;;;3.00;;
15177;SDS011;7689;53.612;-2.416;2022-07-01T08:35:59;3.35;;;2.70;;
15177;SDS011;7689;53.612;-2.416;2022-07-01T08:38:25;3.50;;;3.00;;
15177;SDS011;7689;53.612;-2.416;2022-07-01T08:40:50;3.30;;;3.10;;
15177;SDS011;7689;53.612;-2.416;2022-07-01T08:43:16;6.03;;;2.70;;
15177;SDS011;7689;53.612;-2.416;2022-07-01T08:45:42;5.53;;;3.50;;
15177;SDS011;7689;53.612;-2.416;2022-07-01T08:48:07;4.43;;;3.00;;
15177;SDS011;7689;53.612;-2.416;2022-07-01T08:50:34;3.67;;;3.03;;
15177;SDS011;7689;53.612;-2.416;2022-07-01T08:53:03;6.25;;;3.20;;
15177;SDS011;7689;53.612;-2.416;2022-07-01T08:55:29;4.90;;;3.53;;
15177;SDS011;7689;53.612;-2.416;2022-07-01T08:57:55;5.28;;;2.58;;
15177;SDS011;7689;53.612;-2.416;2022-07-01T09:00:21;2.83;;;2.63;;
15177;SDS011;7689;53.612;-2.416;2022-07-01T09:02:54;3.40;;;2.50;;
15177;SDS011;7689;53.612;-2.416;2022-07-01T09:05:20;2.55;;;2.10;;
15177;SDS011;7689;53.612;-2.416;2022-07-01T09:07:47;4.30;;;2.20;;
15177;SDS011;7689;53.612;-2.416;2022-07-01T09:10:15;2.88;;;2.08;;
15177;SDS011;7689;53.612;-2.416;2022-07-01T09:12:43;2.28;;;2.00;;
15177;SDS011;7689;53.612;-2.416;2022-07-01T09:15:23;2.63;;;2.28;;
15177;SDS011;7689;53.612;-2.416;2022-07-01T09:18:02;2.08;;;1.90;;
15177;SDS011;7689;53.612;-2.416;2022-07-01T09:20:34;2.60;;;2.10;;
15177;SDS011;7689;53.612;-2.416;2022-07-01T09:23:09;3.53;;;1.98;;
15177;SDS011;7689;53.612;-2.416;2022-07-01T09:25:51;5.13;;;2.08;;
15177;SDS011;7689;53.612;-2.416;2022-07-01T09:28:18;2.40;;;2.13;;
15177;SDS011;7689;53.612;-2.416;2022-07-01T09:30:52;3.95;;;2.00;;
15177;SDS011;7689;53.612;-2.416;2022-07-01T09:33:28;3.28;;;2.30;;
15177;SDS011;7689;53.612;-2.416;2022-07-01T09:35:55;2.42;;;1.75;;
15177;SDS011;7689;53.612;-2.416;2022-07-01T09:38:22;6.28;;;2.22;;
15177;SDS011;7689;53.612;-2.416;2022-07-01T09:45:55;1.77;;;1.67;;
15177;SDS011;7689;53.612;-2.416;2022-07-01T09:51:01;2.40;;;2.00;;
15177;SDS011;7689;53.612;-2.416;2022-07-01T09:53:28;2.80;;;1.70;;
15177;SDS011;7689;53.612;-2.416;2022-07-01T09:55:54;1.98;;;1.88;;
15177;SDS011;7689;53.612;-2.416;2022-07-01T09:58:20;1.60;;;1.50;;
15177;SDS011;7689;53.612;-2.416;2022-07-01T10:00:45;4.00;;;1.90;;
15177;SDS011;7689;53.612;-2.416;2022-07-01T10:03:11;1.42;;;1.40;;
15177;SDS011;7689;53.612;-2.416;2022-07-01T10:05:39;2.38;;;1.50;;
15177;SDS011;7689;53.612;-2.416;2022-07-01T10:13:40;1.60;;;1.50;;
15177;SDS011;7689;53.612;-2.416;2022-07-01T10:16:07;1.75;;;1.65;;
15177;SDS011;7689;53.612;-2.416;2022-07-01T10:18:34;1.67;;;1.55;;
15177;SDS011;7689;53.612;-2.416;2022-07-01T10:21:00;1.77;;;1.67;;
15177;SDS011;7689;53.612;-2.416;2022-07-01T10:23:40;1.60;;;1.50;;
15177;SDS011;7689;53.612;-2.416;2022-07-01T10:26:07;2.85;;;1.60;;
15177;SDS011;7689;53.612;-2.416;2022-07-01T10:31:14;1.90;;;1.70;;
15177;SDS011;7689;53.612;-2.416;2022-07-01T10:33:51;1.67;;;1.52;;
15177;SDS011;7689;53.612;-2.416;2022-07-01T10:41:26;3.25;;;1.60;;
15177;SDS011;7689;53.612;-2.416;2022-07-01T10:43:53;1.92;;;1.83;;
15177;SDS011;7689;53.612;-2.416;2022-07-01T10:46:38;1.42;;;1.42;;
15177;SDS011;7689;53.612;-2.416;2022-07-01T10:52:02;4.20;;;1.70;;
15177;SDS011;7689;53.612;-2.416;2022-07-01T10:54:52;2.00;;;1.73;;
15177;SDS011;7689;53.612;-2.416;2022-07-01T10:57:19;2.03;;;1.60;;
15177;SDS011;7689;53.612;-2.416;2022-07-01T10:59:50;2.05;;;1.90;;
15177;SDS011;7689;53.612;-2.416;2022-07-01T11:02:24;1.80;;;1.70;;
15177;SDS011;7689;53.612;-2.416;2022-07-01T11:04:51;1.80;;;1.50;;
15177;SDS011;7689;53.612;-2.416;2022-07-01T11:07:19;1.52;;;1.42;;
15177;SDS011;7689;53.612;-2.416;2022-07-01T11:09:45;1.58;;;1.40;;
15177;SDS011;7689;53.612;-2.416;2022-07-01T11:12:11;1.88;;;1.70;;
15177;SDS011;7689;53.612;-2.416;2022-07-01T11:14:40;1.52;;;1.42;;
15177;SDS011;7689;53.612;-2.416;2022-07-01T11:17:07;5.45;;;1.77;;
15177;SDS011;7689;53.612;-2.416;2022-07-01T11:19:34;1.98;;;1.88;;
15177;SDS011;7689;53.612;-2.416;2022-07-01T11:22:00;2.58;;;1.60;;
15177;SDS011;7689;53.612;-2.416;2022-07-01T11:24:28;1.65;;;1.55;;
15177;SDS011;7689;53.612;-2.416;2022-07-01T11:27:00;1.95;;;1.85;;
15177;SDS011;7689;53.612;-2.416;2022-07-01T11:29:31;4.88;;;2.50;;
15177;SDS011;7689;53.612;-2.416;2022-07-01T11:31:58;2.85;;;2.45;;
15177;SDS011;7689;53.612;-2.416;2022-07-01T11:34:26;4.47;;;2.80;;
15177;SDS011;7689;53.612;-2.416;2022-07-01T11:36:54;3.60;;;2.70;;
15177;SDS011;7689;53.612;-2.416;2022-07-01T11:39:38;2.97;;;2.00;;
15177;SDS011;7689;53.612;-2.416;2022-07-01T11:42:06;2.65;;;2.45;;
15177;SDS011;7689;53.612;-2.416;2022-07-01T11:44:34;3.47;;;2.30;;
15177;SDS011;7689;53.612;-2.416;2022-07-01T11:47:01;3.67;;;2.22;;
15177;SDS011;7689;53.612;-2.416;2022-07-01T11:49:31;2.58;;;2.17;;
15177;SDS011;7689;53.612;-2.416;2022-07-01T11:52:02;5.07;;;2.85;;
15177;SDS011;7689;53.612;-2.416;2022-07-01T11:54:30;2.70;;;1.98;;
15177;SDS011;7689;53.612;-2.416;2022-07-01T11:59:34;2.38;;;2.10;;
15177;SDS011;7689;53.612;-2.416;2022-07-01T12:02:03;2.00;;;1.80;;
15177;SDS011;7689;53.612;-2.416;2022-07-01T12:04:29;2.50;;;2.08;;
15177;SDS011;7689;53.612;-2.416;2022-07-01T12:06:55;3.15;;;2.08;;
15177;SDS011;7689;53.612;-2.416;2022-07-01T12:09:23;3.25;;;2.30;;
15177;SDS011;7689;53.612;-2.416;2022-07-01T12:11:49;2.60;;;2.40;;
15177;SDS011;7689;53.612;-2.416;2022-07-01T12:14:26;3.28;;;2.33;;
15177;SDS011;7689;53.612;-2.416;2022-07-01T12:16:56;5.38;;;2.50;;
15177;SDS011;7689;53.612;-2.416;2022-07-01T12:19:27;4.20;;;2.50;;
15177;SDS011;7689;53.612;-2.416;2022-07-01T12:21:53;2.88;;;2.53;;
15177;SDS011;7689;53.612;-2.416;2022-07-01T12:24:24;2.95;;;2.70;;
15177;SDS011;7689;53.612;-2.416;2022-07-01T12:29:26;2.95;;;2.70;;
15177;SDS011;7689;53.612;-2.416;2022-07-01T12:32:03;3.28;;;2.97;;
15177;SDS011;7689;53.612;-2.416;2022-07-01T12:35:04;4.40;;;3.00;;
15177;SDS011;7689;53.612;-2.416;2022-07-01T12:39:59;2.58;;;2.42;;
15177;SDS011;7689;53.612;-2.416;2022-07-01T12:42:33;6.70;;;2.40;;
15177;SDS011;7689;53.612;-2.416;2022-07-01T12:45:03;6.03;;;2.63;;
15177;SDS011;7689;53.612;-2.416;2022-07-01T12:47:36;2.15;;;2.00;;
15177;SDS011;7689;53.612;-2.416;2022-07-01T12:52:35;2.13;;;1.92;;
15177;SDS011;7689;53.612;-2.416;2022-07-01T12:55:13;1.83;;;1.70;;
15177;SDS011;7689;53.612;-2.416;2022-07-01T12:57:39;2.42;;;2.22;;
15177;SDS011;7689;53.612;-2.416;2022-07-01T13:03:27;2.60;;;2.28;;
15177;SDS011;7689;53.612;-2.416;2022-07-01T13:05:54;5.90;;;2.75;;
15177;SDS011;7689;53.612;-2.416;2022-07-01T13:08:21;2.85;;;2.38;;
15177;SDS011;7689;53.612;-2.416;2022-07-01T13:10:47;2.80;;;2.60;;
15177;SDS011;7689;53.612;-2.416;2022-07-01T13:13:13;3.40;;;2.33;;
15177;SDS011;7689;53.612;-2.416;2022-07-01T13:15:42;2.50;;;2.35;;
15177;SDS011;7689;53.612;-2.416;2022-07-01T13:18:09;2.97;;;2.78;;
15177;SDS011;7689;53.612;-2.416;2022-07-01T13:20:35;2.85;;;2.63;;
15177;SDS011;7689;53.612;-2.416;2022-07-01T13:23:01;1.95;;;1.75;;
15177;SDS011;7689;53.612;-2.416;2022-07-01T13:25:26;1.98;;;1.90;;
15177;SDS011;7689;53.612;-2.416;2022-07-01T13:27:53;2.05;;;1.92;;
15177;SDS011;7689;53.612;-2.416;2022-07-01T13:30:19;1.80;;;1.70;;
15177;SDS011;7689;53.612;-2.416;2022-07-01T13:32:45;2.40;;;2.20;;
15177;SDS011;7689;53.612;-2.416;2022-07-01T13:35:11;1.90;;;1.80;;
15177;SDS011;7689;53.612;-2.416;2022-07-01T13:37:38;2.03;;;1.92;;
15177;SDS011;7689;53.612;-2.416;2022-07-01T13:40:05;2.53;;;2.28;;
15177;SDS011;7689;53.612;-2.416;2022-07-01T13:42:31;3.40;;;2.00;;
15177;SDS011;7689;53.612;-2.416;2022-07-01T13:44:57;2.08;;;1.98;;
15177;SDS011;7689;53.612;-2.416;2022-07-01T13:47:23;3.20;;;1.88;;
15177;SDS011;7689;53.612;-2.416;2022-07-01T13:49:48;2.55;;;1.80;;
15177;SDS011;7689;53.612;-2.416;2022-07-01T13:52:14;1.90;;;1.80;;
15177;SDS011;7689;53.612;-2.416;2022-07-01T13:54:40;1.90;;;1.80;;
15177;SDS011;7689;53.612;-2.416;2022-07-01T13:57:07;2.00;;;1.90;;
15177;SDS011;7689;53.612;-2.416;2022-07-01T13:59:33;2.15;;;1.95;;
15177;SDS011;7689;53.612;-2.416;2022-07-01T14:01:59;2.08;;;1.83;;
15177;SDS011;7689;53.612;-2.416;2022-07-01T14:04:25;2.55;;;1.95;;
15177;SDS011;7689;53.612;-2.416;2022-07-01T14:06:51;2.25;;;1.60;;
15177;SDS011;7689;53.612;-2.416;2022-07-01T14:09:17;1.90;;;1.80;;
15177;SDS011;7689;53.612;-2.416;2022-07-01T14:11:43;1.95;;;1.80;;
15177;SDS011;7689;53.612;-2.416;2022-07-01T14:14:10;2.20;;;1.63;;
15177;SDS011;7689;53.612;-2.416;2022-07-01T14:16:35;3.20;;;2.00;;
15177;SDS011;7689;53.612;-2.416;2022-07-01T14:19:01;1.60;;;1.50;;
15177;SDS011;7689;53.612;-2.416;2022-07-01T14:21:27;3.25;;;1.77;;
15177;SDS011;7689;53.612;-2.416;2022-07-01T14:23:53;1.88;;;1.60;;
15177;SDS011;7689;53.612;-2.416;2022-07-01T14:26:18;1.95;;;1.60;;
15177;SDS011;7689;53.612;-2.416;2022-07-01T14:28:44;1.25;;;1.25;;
15177;SDS011;7689;53.612;-2.416;2022-07-01T14:31:10;1.67;;;1.10;;
15177;SDS011;7689;53.612;-2.416;2022-07-01T14:33:35;3.92;;;1.33;;
15177;SDS011;7689;53.612;-2.416;2022-07-01T14:36:01;2.45;;;1.50;;
15177;SDS011;7689;53.612;-2.416;2022-07-01T14:38:27;1.70;;;1.60;;
15177;SDS011;7689;53.612;-2.416;2022-07-01T14:40:53;3.80;;;1.70;;
15177;SDS011;7689;53.612;-2.416;2022-07-01T14:43:19;2.10;;;1.40;;
15177;SDS011;7689;53.612;-2.416;2022-07-01T14:45:44;1.33;;;1.30;;
15177;SDS011;7689;53.612;-2.416;2022-07-01T14:48:11;3.03;;;1.30;;
15177;SDS011;7689;53.612;-2.416;2022-07-01T14:50:37;1.50;;;1.40;;
15177;SDS011;7689;53.612;-2.416;2022-07-01T14:53:05;1.30;;;1.20;;
15177;SDS011;7689;53.612;-2.416;2022-07-01T14:55:33;2.15;;;1.38;;
15177;SDS011;7689;53.612;-2.416;2022-07-01T14:57:59;1.63;;;1.40;;
15177;SDS011;7689;53.612;-2.416;2022-07-01T15:00:25;2.60;;;1.73;;
15177;SDS011;7689;53.612;-2.416;2022-07-01T15:02:51;1.50;;;1.50;;
15177;SDS011;7689;53.612;-2.416;2022-07-01T15:05:17;1.73;;;1.55;;
15177;SDS011;7689;53.612;-2.416;2022-07-01T15:07:43;1.75;;;1.45;;
15177;SDS011;7689;53.612;-2.416;2022-07-01T15:10:09;1.30;;;1.30;;
15177;SDS011;7689;53.612;-2.416;2022-07-01T15:12:35;1.50;;;1.40;;
15177;SDS011;7689;53.612;-2.416;2022-07-01T15:15:00;1.50;;;1.50;;
15177;SDS011;7689;53.612;-2.416;2022-07-01T15:17:26;3.22;;;1.40;;
15177;SDS011;7689;53.612;-2.416;2022-07-01T15:19:52;1.80;;;1.65;;
15177;SDS011;7689;53.612;-2.416;2022-07-01T15:22:18;1.45;;;1.45;;
15177;SDS011;7689;53.612;-2.416;2022-07-01T15:24:44;3.65;;;2.00;;
15177;SDS011;7689;53.612;-2.416;2022-07-01T15:27:09;2.15;;;1.80;;